sensor_id;sensor_type;location;lat;lon;timestamp;temperature;humidity
20803;DHT22;10562;-33.856;151.182;2024-03-23T00:55:41;26.40;99.90
20803;DHT22;10562;-33.856;151.182;2024-03-23T00:58:10;26.50;99.90
20803;DHT22;10562;-33.856;151.182;2024-03-23T01:00:44;26.70;99.90
20803;DHT22;10562;-33.856;151.182;2024-03-23T01:03:15;26.90;99.90
20803;DHT22;10562;-33.856;151.182;2024-03-23T01:05:45;27.10;99.90
20803;DHT22;10562;-33.856;151.182;2024-03-23T01:08:16;27.30;99.90
20803;DHT22;10562;-33.856;151.182;2024-03-23T01:10:55;27.30;99.90
20803;DHT22;10562;-33.856;151.182;2024-03-23T01:13:25;27.30;99.90
20803;DHT22;10562;-33.856;151.182;2024-03-23T01:15:56;27.30;99.90
20803;DHT22;10562;-33.856;151.182;2024-03-23T01:18:27;27.40;99.90
20803;DHT22;10562;-33.856;151.182;2024-03-23T01:20:58;27.40;99.90
20803;DHT22;10562;-33.856;151.182;2024-03-23T01:23:27;27.40;99.90
20803;DHT22;10562;-33.856;151.182;2024-03-23T01:25:58;27.50;99.90
20803;DHT22;10562;-33.856;151.182;2024-03-23T01:28:27;27.60;99.90
20803;DHT22;10562;-33.856;151.182;2024-03-23T01:30:57;27.60;99.90
20803;DHT22;10562;-33.856;151.182;2024-03-23T01:33:29;27.80;99.90
20803;DHT22;10562;-33.856;151.182;2024-03-23T01:36:00;27.90;99.90
20803;DHT22;10562;-33.856;151.182;2024-03-23T01:38:29;27.80;99.90
20803;DHT22;10562;-33.856;151.182;2024-03-23T01:40:59;27.90;99.90
20803;DHT22;10562;-33.856;151.182;2024-03-23T01:43:29;28.00;99.90
20803;DHT22;10562;-33.856;151.182;2024-03-23T01:46:00;28.20;99.90
20803;DHT22;10562;-33.856;151.182;2024-03-23T01:48:31;28.30;99.90
20803;DHT22;10562;-33.856;151.182;2024-03-23T01:51:02;28.50;99.90
20803;DHT22;10562;-33.856;151.182;2024-03-23T01:53:31;28.60;99.90
20803;DHT22;10562;-33.856;151.182;2024-03-23T01:56:03;28.70;99.90
20803;DHT22;10562;-33.856;151.182;2024-03-23T01:58:32;28.50;99.90
20803;DHT22;10562;-33.856;151.182;2024-03-23T02:01:03;28.30;99.90
20803;DHT22;10562;-33.856;151.182;2024-03-23T02:03:34;28.30;99.90
20803;DHT22;10562;-33.856;151.182;2024-03-23T02:06:07;28.20;99.90
20803;DHT22;10562;-33.856;151.182;2024-03-23T02:08:37;28.40;99.90
20803;DHT22;10562;-33.856;151.182;2024-03-23T02:11:08;28.50;99.90
20803;DHT22;10562;-33.856;151.182;2024-03-23T02:13:37;28.70;99.90
20803;DHT22;10562;-33.856;151.182;2024-03-23T02:16:11;28.90;99.90
20803;DHT22;10562;-33.856;151.182;2024-03-23T02:18:43;29.10;99.90
20803;DHT22;10562;-33.856;151.182;2024-03-23T02:21:14;29.40;99.90
20803;DHT22;10562;-33.856;151.182;2024-03-23T02:23:45;29.50;99.90
20803;DHT22;10562;-33.856;151.182;2024-03-23T02:26:16;29.60;99.90
20803;DHT22;10562;-33.856;151.182;2024-03-23T02:28:45;29.40;99.90
20803;DHT22;10562;-33.856;151.182;2024-03-23T02:31:16;29.00;99.90
20803;DHT22;10562;-33.856;151.182;2024-03-23T02:33:45;28.70;99.90
20803;DHT22;10562;-33.856;151.182;2024-03-23T02:36:16;28.60;99.90
20803;DHT22;10562;-33.856;151.182;2024-03-23T02:38:47;28.80;99.90
20803;DHT22;10562;-33.856;151.182;2024-03-23T02:41:18;28.90;99.90
20803;DHT22;10562;-33.856;151.182;2024-03-23T02:43:50;28.70;99.90
20803;DHT22;10562;-33.856;151.182;2024-03-23T02:46:21;28.60;99.90
20803;DHT22;10562;-33.856;151.182;2024-03-23T02:48:51;28.70;99.90
20803;DHT22;10562;-33.856;151.182;2024-03-23T02:51:21;28.70;99.90
20803;DHT22;10562;-33.856;151.182;2024-03-23T02:53:52;28.80;99.90
20803;DHT22;10562;-33.856;151.182;2024-03-23T02:56:23;28.80;99.90
20803;DHT22;10562;-33.856;151.182;2024-03-23T02:58:52;28.70;99.90
20803;DHT22;10562;-33.856;151.182;2024-03-23T03:01:23;28.60;99.90
20803;DHT22;10562;-33.856;151.182;2024-03-23T03:03:53;28.60;99.90
20803;DHT22;10562;-33.856;151.182;2024-03-23T03:06:27;28.70;99.90
20803;DHT22;10562;-33.856;151.182;2024-03-23T03:08:58;28.60;99.90
20803;DHT22;10562;-33.856;151.182;2024-03-23T03:11:29;28.40;99.90
20803;DHT22;10562;-33.856;151.182;2024-03-23T03:13:58;28.30;99.90
20803;DHT22;10562;-33.856;151.182;2024-03-23T03:16:29;28.20;99.90
20803;DHT22;10562;-33.856;151.182;2024-03-23T03:18:58;28.00;99.90
20803;DHT22;10562;-33.856;151.182;2024-03-23T03:21:29;27.80;99.90
20803;DHT22;10562;-33.856;151.182;2024-03-23T03:24:00;27.60;99.90
20803;DHT22;10562;-33.856;151.182;2024-03-23T03:26:30;27.60;99.90
20803;DHT22;10562;-33.856;151.182;2024-03-23T03:29:00;27.70;99.90
20803;DHT22;10562;-33.856;151.182;2024-03-23T03:31:31;27.70;99.90
20803;DHT22;10562;-33.856;151.182;2024-03-23T03:34:00;27.70;99.90
20803;DHT22;10562;-33.856;151.182;2024-03-23T03:36:31;27.80;99.90
20803;DHT22;10562;-33.856;151.182;2024-03-23T03:39:02;27.80;99.90
20803;DHT22;10562;-33.856;151.182;2024-03-23T03:41:33;27.80;99.90
20803;DHT22;10562;-33.856;151.182;2024-03-23T03:44:03;27.70;99.90
20803;DHT22;10562;-33.856;151.182;2024-03-23T03:46:33;27.70;99.90
20803;DHT22;10562;-33.856;151.182;2024-03-23T03:49:03;27.70;99.90
20803;DHT22;10562;-33.856;151.182;2024-03-23T03:51:33;27.80;99.90
20803;DHT22;10562;-33.856;151.182;2024-03-23T03:54:04;27.80;99.90
20803;DHT22;10562;-33.856;151.182;2024-03-23T03:56:35;27.90;99.90
20803;DHT22;10562;-33.856;151.182;2024-03-23T03:59:04;28.00;99.90
20803;DHT22;10562;-33.856;151.182;2024-03-23T04:01:35;28.20;99.90
20803;DHT22;10562;-33.856;151.182;2024-03-23T04:04:04;28.20;99.90
20803;DHT22;10562;-33.856;151.182;2024-03-23T04:06:35;28.20;99.90
20803;DHT22;10562;-33.856;151.182;2024-03-23T04:09:06;28.00;99.90
20803;DHT22;10562;-33.856;151.182;2024-03-23T04:11:38;28.00;99.90
20803;DHT22;10562;-33.856;151.182;2024-03-23T04:14:07;27.80;99.90
20803;DHT22;10562;-33.856;151.182;2024-03-23T04:16:37;27.80;99.90
20803;DHT22;10562;-33.856;151.182;2024-03-23T04:19:07;27.70;99.90
20803;DHT22;10562;-33.856;151.182;2024-03-23T04:21:38;27.70;99.90
20803;DHT22;10562;-33.856;151.182;2024-03-23T04:24:09;27.70;99.90
20803;DHT22;10562;-33.856;151.182;2024-03-23T04:26:43;27.70;99.90
20803;DHT22;10562;-33.856;151.182;2024-03-23T04:29:13;27.80;99.90
20803;DHT22;10562;-33.856;151.182;2024-03-23T04:31:44;27.90;99.90
20803;DHT22;10562;-33.856;151.182;2024-03-23T04:34:13;27.50;99.90
20803;DHT22;10562;-33.856;151.182;2024-03-23T04:36:44;27.60;99.90
20803;DHT22;10562;-33.856;151.182;2024-03-23T04:39:15;27.40;99.90
20803;DHT22;10562;-33.856;151.182;2024-03-23T04:41:47;27.20;99.90
20803;DHT22;10562;-33.856;151.182;2024-03-23T04:44:18;27.00;99.90
20803;DHT22;10562;-33.856;151.182;2024-03-23T04:46:48;26.90;99.90
20803;DHT22;10562;-33.856;151.182;2024-03-23T04:49:19;26.90;99.90
20803;DHT22;10562;-33.856;151.182;2024-03-23T04:51:50;26.80;99.90
20803;DHT22;10562;-33.856;151.182;2024-03-23T04:54:23;26.70;99.90
20803;DHT22;10562;-33.856;151.182;2024-03-23T04:56:56;26.60;99.90
20803;DHT22;10562;-33.856;151.182;2024-03-23T04:59:27;26.60;99.90
20803;DHT22;10562;-33.856;151.182;2024-03-23T05:01:56;26.50;99.90
20803;DHT22;10562;-33.856;151.182;2024-03-23T05:04:27;26.50;99.90
20803;DHT22;10562;-33.856;151.182;2024-03-23T05:06:56;26.40;99.90
20803;DHT22;10562;-33.856;151.182;2024-03-23T05:09:29;26.20;99.90
20803;DHT22;10562;-33.856;151.182;2024-03-23T05:11:58;25.90;99.90
20803;DHT22;10562;-33.856;151.182;2024-03-23T05:14:30;25.70;99.90
20803;DHT22;10562;-33.856;151.182;2024-03-23T05:17:01;25.50;99.90
20803;DHT22;10562;-33.856;151.182;2024-03-23T05:19:30;25.30;99.90
20803;DHT22;10562;-33.856;151.182;2024-03-23T05:22:01;25.10;99.90
20803;DHT22;10562;-33.856;151.182;2024-03-23T05:24:32;25.00;99.90
20803;DHT22;10562;-33.856;151.182;2024-03-23T05:27:03;24.90;99.90
20803;DHT22;10562;-33.856;151.182;2024-03-23T05:29:32;24.90;99.90
20803;DHT22;10562;-33.856;151.182;2024-03-23T05:32:03;24.80;99.90
20803;DHT22;10562;-33.856;151.182;2024-03-23T05:34:32;24.70;99.90
20803;DHT22;10562;-33.856;151.182;2024-03-23T05:37:03;24.60;99.90
20803;DHT22;10562;-33.856;151.182;2024-03-23T05:39:34;24.70;99.90
20803;DHT22;10562;-33.856;151.182;2024-03-23T05:42:05;24.60;99.90
20803;DHT22;10562;-33.856;151.182;2024-03-23T05:44:34;24.70;99.90
20803;DHT22;10562;-33.856;151.182;2024-03-23T05:47:05;24.60;99.90
20803;DHT22;10562;-33.856;151.182;2024-03-23T05:49:35;24.50;99.90
20803;DHT22;10562;-33.856;151.182;2024-03-23T05:52:06;24.40;99.90
20803;DHT22;10562;-33.856;151.182;2024-03-23T05:54:37;24.40;99.90
20803;DHT22;10562;-33.856;151.182;2024-03-23T05:57:09;24.20;99.90
20803;DHT22;10562;-33.856;151.182;2024-03-23T05:59:39;24.10;99.90
20803;DHT22;10562;-33.856;151.182;2024-03-23T06:02:10;24.00;99.90
20803;DHT22;10562;-33.856;151.182;2024-03-23T06:04:40;23.90;99.90
20803;DHT22;10562;-33.856;151.182;2024-03-23T06:07:10;23.90;99.90
20803;DHT22;10562;-33.856;151.182;2024-03-23T06:09:43;23.90;99.90
20803;DHT22;10562;-33.856;151.182;2024-03-23T06:12:14;23.90;99.90
20803;DHT22;10562;-33.856;151.182;2024-03-23T06:14:43;23.90;99.90
20803;DHT22;10562;-33.856;151.182;2024-03-23T06:17:16;23.70;99.90
20803;DHT22;10562;-33.856;151.182;2024-03-23T06:19:46;23.70;99.90
20803;DHT22;10562;-33.856;151.182;2024-03-23T06:22:17;23.60;99.90
20803;DHT22;10562;-33.856;151.182;2024-03-23T06:24:48;23.60;99.90
20803;DHT22;10562;-33.856;151.182;2024-03-23T06:27:19;23.50;99.90
20803;DHT22;10562;-33.856;151.182;2024-03-23T06:29:48;23.40;99.90
20803;DHT22;10562;-33.856;151.182;2024-03-23T06:32:19;23.50;99.90
20803;DHT22;10562;-33.856;151.182;2024-03-23T06:34:48;23.50;99.90
20803;DHT22;10562;-33.856;151.182;2024-03-23T06:37:19;23.70;99.90
20803;DHT22;10562;-33.856;151.182;2024-03-23T06:39:50;23.80;99.90
20803;DHT22;10562;-33.856;151.182;2024-03-23T06:42:21;23.70;99.90
20803;DHT22;10562;-33.856;151.182;2024-03-23T06:44:50;23.60;99.90
20803;DHT22;10562;-33.856;151.182;2024-03-23T06:47:21;23.60;99.90
20803;DHT22;10562;-33.856;151.182;2024-03-23T06:49:50;23.50;99.90
20803;DHT22;10562;-33.856;151.182;2024-03-23T06:52:21;23.50;99.90
20803;DHT22;10562;-33.856;151.182;2024-03-23T06:54:52;23.50;99.90
20803;DHT22;10562;-33.856;151.182;2024-03-23T06:57:23;23.70;99.90
20803;DHT22;10562;-33.856;151.182;2024-03-23T06:59:52;23.80;99.90
20803;DHT22;10562;-33.856;151.182;2024-03-23T07:02:23;23.70;99.90
20803;DHT22;10562;-33.856;151.182;2024-03-23T07:04:52;23.50;99.90
20803;DHT22;10562;-33.856;151.182;2024-03-23T07:07:23;23.30;99.90
20803;DHT22;10562;-33.856;151.182;2024-03-23T07:09:54;23.20;99.90
20803;DHT22;10562;-33.856;151.182;2024-03-23T07:12:25;23.00;99.90
20803;DHT22;10562;-33.856;151.182;2024-03-23T07:14:54;22.90;99.90
20803;DHT22;10562;-33.856;151.182;2024-03-23T07:17:25;22.80;99.90
20803;DHT22;10562;-33.856;151.182;2024-03-23T07:19:54;22.80;99.90
20803;DHT22;10562;-33.856;151.182;2024-03-23T07:22:25;22.70;99.90
20803;DHT22;10562;-33.856;151.182;2024-03-23T07:24:56;22.70;99.90
20803;DHT22;10562;-33.856;151.182;2024-03-23T07:27:27;22.70;99.90
20803;DHT22;10562;-33.856;151.182;2024-03-23T07:29:56;22.60;99.90
20803;DHT22;10562;-33.856;151.182;2024-03-23T07:32:27;22.50;99.90
20803;DHT22;10562;-33.856;151.182;2024-03-23T07:34:56;22.40;99.90
20803;DHT22;10562;-33.856;151.182;2024-03-23T07:37:27;22.40;99.90
20803;DHT22;10562;-33.856;151.182;2024-03-23T07:39:58;22.30;99.90
20803;DHT22;10562;-33.856;151.182;2024-03-23T07:42:29;22.30;99.90
20803;DHT22;10562;-33.856;151.182;2024-03-23T07:44:58;22.20;99.90
20803;DHT22;10562;-33.856;151.182;2024-03-23T07:47:29;22.10;99.90
20803;DHT22;10562;-33.856;151.182;2024-03-23T07:49:58;22.10;99.90
20803;DHT22;10562;-33.856;151.182;2024-03-23T07:52:30;22.00;99.90
20803;DHT22;10562;-33.856;151.182;2024-03-23T07:55:01;22.00;99.90
20803;DHT22;10562;-33.856;151.182;2024-03-23T07:57:32;21.90;99.90
20803;DHT22;10562;-33.856;151.182;2024-03-23T08:00:01;21.90;99.90
20803;DHT22;10562;-33.856;151.182;2024-03-23T08:02:32;21.80;99.90
20803;DHT22;10562;-33.856;151.182;2024-03-23T08:05:02;21.80;99.90
20803;DHT22;10562;-33.856;151.182;2024-03-23T08:07:32;21.80;99.90
20803;DHT22;10562;-33.856;151.182;2024-03-23T08:10:04;21.80;99.90
20803;DHT22;10562;-33.856;151.182;2024-03-23T08:12:35;21.70;99.90
20803;DHT22;10562;-33.856;151.182;2024-03-23T08:15:04;21.70;99.90
20803;DHT22;10562;-33.856;151.182;2024-03-23T08:17:35;21.70;99.90
20803;DHT22;10562;-33.856;151.182;2024-03-23T08:20:05;21.70;99.90
20803;DHT22;10562;-33.856;151.182;2024-03-23T08:22:36;21.70;99.90
20803;DHT22;10562;-33.856;151.182;2024-03-23T08:25:08;21.70;99.90
20803;DHT22;10562;-33.856;151.182;2024-03-23T08:27:39;21.70;99.90
20803;DHT22;10562;-33.856;151.182;2024-03-23T08:30:09;21.70;99.90
20803;DHT22;10562;-33.856;151.182;2024-03-23T08:32:40;21.70;99.90
20803;DHT22;10562;-33.856;151.182;2024-03-23T08:35:09;21.70;99.90
20803;DHT22;10562;-33.856;151.182;2024-03-23T08:37:40;21.70;99.90
20803;DHT22;10562;-33.856;151.182;2024-03-23T08:40:11;21.70;99.90
20803;DHT22;10562;-33.856;151.182;2024-03-23T08:42:42;21.60;99.90
20803;DHT22;10562;-33.856;151.182;2024-03-23T08:45:11;21.60;99.90
20803;DHT22;10562;-33.856;151.182;2024-03-23T08:47:42;21.60;99.90
20803;DHT22;10562;-33.856;151.182;2024-03-23T08:50:11;21.60;99.90
20803;DHT22;10562;-33.856;151.182;2024-03-23T08:52:42;21.60;99.90
20803;DHT22;10562;-33.856;151.182;2024-03-23T08:55:14;21.50;99.90
20803;DHT22;10562;-33.856;151.182;2024-03-23T08:57:44;21.50;99.90
20803;DHT22;10562;-33.856;151.182;2024-03-23T09:00:14;21.50;99.90
20803;DHT22;10562;-33.856;151.182;2024-03-23T09:02:48;21.60;99.90
20803;DHT22;10562;-33.856;151.182;2024-03-23T09:05:17;21.50;99.90
20803;DHT22;10562;-33.856;151.182;2024-03-23T09:07:48;21.50;99.90
20803;DHT22;10562;-33.856;151.182;2024-03-23T09:10:20;21.50;99.90
20803;DHT22;10562;-33.856;151.182;2024-03-23T09:12:52;21.60;99.90
20803;DHT22;10562;-33.856;151.182;2024-03-23T09:15:21;21.50;99.90
20803;DHT22;10562;-33.856;151.182;2024-03-23T09:17:54;21.50;99.90
20803;DHT22;10562;-33.856;151.182;2024-03-23T09:20:24;21.50;99.90
20803;DHT22;10562;-33.856;151.182;2024-03-23T09:22:57;21.50;99.90
20803;DHT22;10562;-33.856;151.182;2024-03-23T09:25:29;21.50;99.90
20803;DHT22;10562;-33.856;151.182;2024-03-23T09:28:00;21.50;99.90
20803;DHT22;10562;-33.856;151.182;2024-03-23T09:30:29;21.40;99.90
20803;DHT22;10562;-33.856;151.182;2024-03-23T09:33:00;21.40;99.90
20803;DHT22;10562;-33.856;151.182;2024-03-23T09:35:29;21.40;99.90
20803;DHT22;10562;-33.856;151.182;2024-03-23T09:38:00;21.40;99.90
20803;DHT22;10562;-33.856;151.182;2024-03-23T09:40:31;21.40;99.90
20803;DHT22;10562;-33.856;151.182;2024-03-23T09:43:02;21.30;99.90
20803;DHT22;10562;-33.856;151.182;2024-03-23T09:45:38;21.30;99.90
20803;DHT22;10562;-33.856;151.182;2024-03-23T09:48:09;21.30;99.90
20803;DHT22;10562;-33.856;151.182;2024-03-23T09:50:39;21.30;99.90
20803;DHT22;10562;-33.856;151.182;2024-03-23T09:53:12;21.30;99.90
20803;DHT22;10562;-33.856;151.182;2024-03-23T09:55:44;21.30;99.90
20803;DHT22;10562;-33.856;151.182;2024-03-23T09:58:18;21.30;99.90
20803;DHT22;10562;-33.856;151.182;2024-03-23T10:00:47;21.30;99.90
20803;DHT22;10562;-33.856;151.182;2024-03-23T10:03:18;21.30;99.90
20803;DHT22;10562;-33.856;151.182;2024-03-23T10:05:47;21.30;99.90
20803;DHT22;10562;-33.856;151.182;2024-03-23T10:08:31;21.20;99.90
20803;DHT22;10562;-33.856;151.182;2024-03-23T10:11:13;21.20;99.90
20803;DHT22;10562;-33.856;151.182;2024-03-23T10:13:45;21.20;99.90
20803;DHT22;10562;-33.856;151.182;2024-03-23T10:16:22;21.20;99.90
20803;DHT22;10562;-33.856;151.182;2024-03-23T10:18:54;21.20;99.90
20803;DHT22;10562;-33.856;151.182;2024-03-23T10:21:23;21.10;99.90
20803;DHT22;10562;-33.856;151.182;2024-03-23T10:23:56;21.10;99.90
20803;DHT22;10562;-33.856;151.182;2024-03-23T10:26:38;21.10;99.90
20803;DHT22;10562;-33.856;151.182;2024-03-23T10:29:09;21.10;99.90
20803;DHT22;10562;-33.856;151.182;2024-03-23T10:31:40;21.10;99.90
20803;DHT22;10562;-33.856;151.182;2024-03-23T10:34:13;21.10;99.90
20803;DHT22;10562;-33.856;151.182;2024-03-23T10:36:44;21.10;99.90
20803;DHT22;10562;-33.856;151.182;2024-03-23T10:39:15;21.10;99.90
20803;DHT22;10562;-33.856;151.182;2024-03-23T10:41:47;21.10;99.90
20803;DHT22;10562;-33.856;151.182;2024-03-23T10:44:20;21.10;99.90
20803;DHT22;10562;-33.856;151.182;2024-03-23T10:46:53;21.20;99.90
20803;DHT22;10562;-33.856;151.182;2024-03-23T10:49:28;21.20;99.90
20803;DHT22;10562;-33.856;151.182;2024-03-23T10:51:59;21.20;99.90
20803;DHT22;10562;-33.856;151.182;2024-03-23T10:54:31;21.20;99.90
20803;DHT22;10562;-33.856;151.182;2024-03-23T10:57:05;21.20;99.90
20803;DHT22;10562;-33.856;151.182;2024-03-23T10:59:38;21.20;99.90
20803;DHT22;10562;-33.856;151.182;2024-03-23T11:02:08;21.20;99.90
20803;DHT22;10562;-33.856;151.182;2024-03-23T11:04:48;21.20;99.90
20803;DHT22;10562;-33.856;151.182;2024-03-23T11:07:33;21.20;99.90
20803;DHT22;10562;-33.856;151.182;2024-03-23T11:10:27;21.20;99.90
20803;DHT22;10562;-33.856;151.182;2024-03-23T11:12:59;21.10;99.90
20803;DHT22;10562;-33.856;151.182;2024-03-23T11:15:49;21.10;99.90
20803;DHT22;10562;-33.856;151.182;2024-03-23T11:18:22;21.10;99.90
20803;DHT22;10562;-33.856;151.182;2024-03-23T11:20:53;21.10;99.90
20803;DHT22;10562;-33.856;151.182;2024-03-23T11:23:29;21.20;99.90
20803;DHT22;10562;-33.856;151.182;2024-03-23T11:25:59;21.20;99.90
20803;DHT22;10562;-33.856;151.182;2024-03-23T11:28:31;21.20;99.90
20803;DHT22;10562;-33.856;151.182;2024-03-23T11:31:02;21.20;99.90
20803;DHT22;10562;-33.856;151.182;2024-03-23T11:33:38;21.20;99.90
20803;DHT22;10562;-33.856;151.182;2024-03-23T11:36:08;21.20;99.90
20803;DHT22;10562;-33.856;151.182;2024-03-23T11:38:38;21.20;99.90
20803;DHT22;10562;-33.856;151.182;2024-03-23T11:41:09;21.20;99.90
20803;DHT22;10562;-33.856;151.182;2024-03-23T11:43:40;21.20;99.90
20803;DHT22;10562;-33.856;151.182;2024-03-23T11:46:11;21.30;99.90
20803;DHT22;10562;-33.856;151.182;2024-03-23T11:48:40;21.30;99.90
20803;DHT22;10562;-33.856;151.182;2024-03-23T11:51:11;21.30;99.90
20803;DHT22;10562;-33.856;151.182;2024-03-23T11:53:40;21.30;99.90
20803;DHT22;10562;-33.856;151.182;2024-03-23T11:56:10;21.30;99.90
20803;DHT22;10562;-33.856;151.182;2024-03-23T11:58:42;21.30;99.90
20803;DHT22;10562;-33.856;151.182;2024-03-23T12:01:12;21.30;99.90
20803;DHT22;10562;-33.856;151.182;2024-03-23T12:03:45;21.30;99.90
20803;DHT22;10562;-33.856;151.182;2024-03-23T12:06:20;21.30;99.90
20803;DHT22;10562;-33.856;151.182;2024-03-23T12:08:50;21.30;99.90
20803;DHT22;10562;-33.856;151.182;2024-03-23T12:11:20;21.30;99.90
20803;DHT22;10562;-33.856;151.182;2024-03-23T12:13:52;21.30;99.90
20803;DHT22;10562;-33.856;151.182;2024-03-23T12:16:25;21.20;99.90
20803;DHT22;10562;-33.856;151.182;2024-03-23T12:19:06;21.20;99.90
20803;DHT22;10562;-33.856;151.182;2024-03-23T12:21:36;21.20;99.90
20803;DHT22;10562;-33.856;151.182;2024-03-23T12:24:06;21.20;99.90
20803;DHT22;10562;-33.856;151.182;2024-03-23T12:26:37;21.20;99.90
20803;DHT22;10562;-33.856;151.182;2024-03-23T12:29:09;21.20;99.90
20803;DHT22;10562;-33.856;151.182;2024-03-23T12:31:40;21.20;99.90
20803;DHT22;10562;-33.856;151.182;2024-03-23T12:34:09;21.10;99.90
20803;DHT22;10562;-33.856;151.182;2024-03-23T12:36:42;21.10;99.90
20803;DHT22;10562;-33.856;151.182;2024-03-23T12:39:12;21.10;99.90
20803;DHT22;10562;-33.856;151.182;2024-03-23T12:41:42;21.10;99.90
20803;DHT22;10562;-33.856;151.182;2024-03-23T12:44:14;21.00;99.90
20803;DHT22;10562;-33.856;151.182;2024-03-23T12:46:45;21.00;99.90
20803;DHT22;10562;-33.856;151.182;2024-03-23T12:49:14;20.90;99.90
20803;DHT22;10562;-33.856;151.182;2024-03-23T12:51:53;20.90;99.90
20803;DHT22;10562;-33.856;151.182;2024-03-23T12:54:23;20.90;99.90
20803;DHT22;10562;-33.856;151.182;2024-03-23T12:56:54;20.90;99.90
20803;DHT22;10562;-33.856;151.182;2024-03-23T12:59:25;20.90;99.90
20803;DHT22;10562;-33.856;151.182;2024-03-23T13:01:58;20.90;99.90
20803;DHT22;10562;-33.856;151.182;2024-03-23T13:04:27;20.90;99.90
20803;DHT22;10562;-33.856;151.182;2024-03-23T13:06:58;20.90;99.90
20803;DHT22;10562;-33.856;151.182;2024-03-23T13:09:27;20.90;99.90
20803;DHT22;10562;-33.856;151.182;2024-03-23T13:11:58;20.90;99.90
20803;DHT22;10562;-33.856;151.182;2024-03-23T13:14:29;20.90;99.90
20803;DHT22;10562;-33.856;151.182;2024-03-23T13:17:00;20.90;99.90
20803;DHT22;10562;-33.856;151.182;2024-03-23T13:19:30;20.90;99.90
20803;DHT22;10562;-33.856;151.182;2024-03-23T13:22:01;20.90;99.90
20803;DHT22;10562;-33.856;151.182;2024-03-23T13:24:31;20.90;99.90
20803;DHT22;10562;-33.856;151.182;2024-03-23T13:27:02;20.90;99.90
20803;DHT22;10562;-33.856;151.182;2024-03-23T13:29:34;20.90;99.90
20803;DHT22;10562;-33.856;151.182;2024-03-23T13:32:05;20.90;99.90
20803;DHT22;10562;-33.856;151.182;2024-03-23T13:34:35;20.90;99.90
20803;DHT22;10562;-33.856;151.182;2024-03-23T13:37:06;20.90;99.90
20803;DHT22;10562;-33.856;151.182;2024-03-23T13:39:35;20.90;99.90
20803;DHT22;10562;-33.856;151.182;2024-03-23T13:42:06;20.90;99.90
20803;DHT22;10562;-33.856;151.182;2024-03-23T13:44:38;20.90;99.90
20803;DHT22;10562;-33.856;151.182;2024-03-23T13:47:09;21.00;99.90
20803;DHT22;10562;-33.856;151.182;2024-03-23T13:49:38;20.90;99.90
20803;DHT22;10562;-33.856;151.182;2024-03-23T13:52:09;21.00;99.90
20803;DHT22;10562;-33.856;151.182;2024-03-23T13:54:38;21.00;99.90
20803;DHT22;10562;-33.856;151.182;2024-03-23T13:57:13;21.00;99.90
20803;DHT22;10562;-33.856;151.182;2024-03-23T13:59:44;20.90;99.90
20803;DHT22;10562;-33.856;151.182;2024-03-23T14:02:15;20.90;99.90
20803;DHT22;10562;-33.856;151.182;2024-03-23T14:04:44;20.90;99.90
20803;DHT22;10562;-33.856;151.182;2024-03-23T14:07:15;20.90;99.90
20803;DHT22;10562;-33.856;151.182;2024-03-23T14:09:46;20.90;99.90
20803;DHT22;10562;-33.856;151.182;2024-03-23T14:12:16;20.80;99.90
20803;DHT22;10562;-33.856;151.182;2024-03-23T14:14:47;20.80;99.90
20803;DHT22;10562;-33.856;151.182;2024-03-23T14:17:18;20.80;99.90
20803;DHT22;10562;-33.856;151.182;2024-03-23T14:19:47;20.70;99.90
20803;DHT22;10562;-33.856;151.182;2024-03-23T14:22:18;20.70;99.90
20803;DHT22;10562;-33.856;151.182;2024-03-23T14:24:49;20.70;99.90
20803;DHT22;10562;-33.856;151.182;2024-03-23T14:27:20;20.70;99.90
20803;DHT22;10562;-33.856;151.182;2024-03-23T14:29:51;20.60;99.90
20803;DHT22;10562;-33.856;151.182;2024-03-23T14:32:24;20.60;99.90
20803;DHT22;10562;-33.856;151.182;2024-03-23T14:34:53;20.60;99.90
20803;DHT22;10562;-33.856;151.182;2024-03-23T14:37:24;20.50;99.90
20803;DHT22;10562;-33.856;151.182;2024-03-23T14:39:54;20.50;99.90
20803;DHT22;10562;-33.856;151.182;2024-03-23T14:42:25;20.50;99.90
20803;DHT22;10562;-33.856;151.182;2024-03-23T14:44:56;20.50;99.90
20803;DHT22;10562;-33.856;151.182;2024-03-23T14:47:27;20.40;99.90
20803;DHT22;10562;-33.856;151.182;2024-03-23T14:49:58;20.40;99.90
20803;DHT22;10562;-33.856;151.182;2024-03-23T14:52:28;20.30;99.90
20803;DHT22;10562;-33.856;151.182;2024-03-23T14:54:58;20.30;99.90
20803;DHT22;10562;-33.856;151.182;2024-03-23T14:57:28;20.30;99.90
20803;DHT22;10562;-33.856;151.182;2024-03-23T14:59:59;20.30;99.90
20803;DHT22;10562;-33.856;151.182;2024-03-23T15:02:32;20.30;99.90
20803;DHT22;10562;-33.856;151.182;2024-03-23T15:05:02;20.30;99.90
20803;DHT22;10562;-33.856;151.182;2024-03-23T15:07:33;20.30;99.90
20803;DHT22;10562;-33.856;151.182;2024-03-23T15:10:02;20.30;99.90
20803;DHT22;10562;-33.856;151.182;2024-03-23T15:12:33;20.30;99.90
20803;DHT22;10562;-33.856;151.182;2024-03-23T15:15:05;20.30;99.90
20803;DHT22;10562;-33.856;151.182;2024-03-23T15:17:35;20.30;99.90
20803;DHT22;10562;-33.856;151.182;2024-03-23T15:20:12;20.30;99.90
20803;DHT22;10562;-33.856;151.182;2024-03-23T15:22:43;20.20;99.90
20803;DHT22;10562;-33.856;151.182;2024-03-23T15:25:12;20.20;99.90
20803;DHT22;10562;-33.856;151.182;2024-03-23T15:27:43;20.20;99.90
20803;DHT22;10562;-33.856;151.182;2024-03-23T15:30:15;20.20;99.90
20803;DHT22;10562;-33.856;151.182;2024-03-23T15:32:45;20.20;99.90
20803;DHT22;10562;-33.856;151.182;2024-03-23T15:35:15;20.20;99.90
20803;DHT22;10562;-33.856;151.182;2024-03-23T15:37:46;20.10;99.90
20803;DHT22;10562;-33.856;151.182;2024-03-23T15:40:16;20.20;99.90
20803;DHT22;10562;-33.856;151.182;2024-03-23T15:42:47;20.20;99.90
20803;DHT22;10562;-33.856;151.182;2024-03-23T15:45:19;20.20;99.90
20803;DHT22;10562;-33.856;151.182;2024-03-23T15:47:50;20.20;99.90
20803;DHT22;10562;-33.856;151.182;2024-03-23T15:50:19;20.20;99.90
20803;DHT22;10562;-33.856;151.182;2024-03-23T15:52:52;20.10;99.90
20803;DHT22;10562;-33.856;151.182;2024-03-23T15:55:23;20.20;99.90
20803;DHT22;10562;-33.856;151.182;2024-03-23T15:57:54;20.20;99.90
20803;DHT22;10562;-33.856;151.182;2024-03-23T16:00:25;20.10;99.90
20803;DHT22;10562;-33.856;151.182;2024-03-23T16:02:57;20.20;99.90
20803;DHT22;10562;-33.856;151.182;2024-03-23T16:05:26;20.10;99.90